Time;durP1;ratioP1;P1;durP2;ratioP2;P2;SDS_P1;SDS_P2;PMS_P1;PMS_P2;Temp;Humidity;BMP_temperature;BMP_pressure;BME280_temperature;BME280_humidity;BME280_pressure;Samples;Min_cycle;Max_cycle;Signal;HPM_P1;HPM_P2
2023/08/21 00:02:03;;;;;;;10.40;9.50;;;24.30;99.90;;;;;;5120683;28;20460;-82
2023/08/21 00:04:31;;;;;;;9.37;8.47;;;24.30;99.90;;;;;;5114953;28;20865;-80
2023/08/21 00:06:59;;;;;;;10.20;9.10;;;24.30;99.90;;;;;;5104365;28;20464;-80
2023/08/21 00:09:26;;;;;;;10.57;9.73;;;24.30;99.90;;;;;;5114303;28;20464;-80
2023/08/21 00:11:53;;;;;;;11.23;10.33;;;24.30;99.90;;;;;;5113895;28;20449;-82
2023/08/21 00:14:20;;;;;;;10.43;9.43;;;24.30;99.90;;;;;;5115353;28;20496;-81
2023/08/21 00:16:49;;;;;;;10.73;9.70;;;24.30;99.90;;;;;;5114585;28;20736;-81
2023/08/21 00:19:16;;;;;;;11.93;10.27;;;24.30;99.90;;;;;;5114496;28;20469;-81
2023/08/21 00:21:43;;;;;;;12.10;10.93;;;24.30;99.90;;;;;;5113616;28;20465;-81
2023/08/21 00:24:11;;;;;;;11.30;10.30;;;24.30;99.90;;;;;;5113137;28;20866;-81
2023/08/21 00:26:38;;;;;;;10.50;9.60;;;24.20;99.90;;;;;;5102551;28;20505;-80
2023/08/21 00:29:05;;;;;;;10.87;9.80;;;24.20;99.90;;;;;;5113775;28;20521;-80
2023/08/21 00:31:32;;;;;;;12.13;10.20;;;24.20;99.90;;;;;;5114705;28;20466;-81
2023/08/21 00:34:00;;;;;;;10.33;9.53;;;24.20;99.90;;;;;;5113964;28;20453;-81
2023/08/21 00:36:27;;;;;;;9.77;8.87;;;24.20;99.90;;;;;;5114383;28;20469;-81
2023/08/21 00:38:54;;;;;;;10.17;9.23;;;24.20;99.90;;;;;;5113947;28;20476;-82
2023/08/21 00:41:21;;;;;;;15.70;10.03;;;24.20;99.90;;;;;;5113804;28;20485;-80
2023/08/21 00:43:48;;;;;;;10.00;9.20;;;24.10;99.90;;;;;;5113120;28;20465;-81
2023/08/21 00:46:17;;;;;;;9.80;8.80;;;24.10;99.90;;;;;;5114448;28;20468;-80
2023/08/21 00:48:44;;;;;;;9.47;8.67;;;24.10;99.90;;;;;;5113335;28;20460;-82
2023/08/21 00:51:15;;;;;;;8.70;7.90;;;24.10;99.90;;;;;;5114207;28;20464;-82
2023/08/21 00:53:43;;;;;;;9.07;8.33;;;24.10;99.90;;;;;;5113395;28;20468;-81
2023/08/21 00:56:10;;;;;;;10.03;8.70;;;24.10;99.90;;;;;;5114762;28;20832;-81
2023/08/21 00:58:37;;;;;;;9.73;8.83;;;24.10;99.90;;;;;;5114923;28;20461;-81
2023/08/21 01:01:04;;;;;;;10.87;9.90;;;24.00;99.90;;;;;;5113707;28;20452;-81
2023/08/21 01:03:32;;;;;;;10.17;8.90;;;24.00;99.90;;;;;;5114121;28;20535;-80
2023/08/21 01:05:59;;;;;;;10.97;10.07;;;24.00;99.90;;;;;;5113198;28;20480;-81
2023/08/21 01:08:44;;;;;;;11.37;10.23;;;24.00;99.90;;;;;;5113879;28;20472;-80
2023/08/21 01:11:21;;;;;;;10.77;9.87;;;24.00;99.90;;;;;;5113913;28;20467;-80
2023/08/21 01:13:56;;;;;;;9.77;8.97;;;24.00;99.90;;;;;;5113380;28;20459;-82
2023/08/21 01:16:26;;;;;;;10.37;9.37;;;24.00;99.90;;;;;;5115572;28;20542;-81
2023/08/21 01:18:57;;;;;;;11.40;10.13;;;23.90;99.90;;;;;;5113455;28;20464;-83
2023/08/21 01:21:24;;;;;;;10.87;9.90;;;23.90;99.90;;;;;;5113773;28;20556;-81
2023/08/21 01:23:53;;;;;;;11.70;10.60;;;23.90;99.90;;;;;;5113289;28;20544;-81
2023/08/21 01:26:20;;;;;;;10.27;9.37;;;23.90;99.90;;;;;;5113793;28;20476;-80
2023/08/21 01:28:47;;;;;;;10.50;9.50;;;23.90;99.90;;;;;;5113237;28;20475;-81
2023/08/21 01:31:20;;;;;;;11.90;10.77;;;23.90;99.90;;;;;;5113904;28;20796;-81
2023/08/21 01:33:52;;;;;;;11.30;10.30;;;23.90;99.90;;;;;;5114648;28;20529;-80
2023/08/21 01:36:19;;;;;;;10.83;9.83;;;23.90;99.90;;;;;;5113657;28;20452;-81
2023/08/21 01:38:46;;;;;;;11.47;10.47;;;23.90;99.90;;;;;;5113808;28;21131;-80
2023/08/21 01:41:17;;;;;;;11.40;10.23;;;23.90;99.90;;;;;;5115319;28;20491;-80
2023/08/21 01:43:44;;;;;;;10.30;9.40;;;23.90;99.90;;;;;;5117270;28;20464;-78
2023/08/21 01:46:11;;;;;;;9.10;8.20;;;23.90;99.90;;;;;;5117391;28;20456;-80
2023/08/21 01:48:41;;;;;;;10.13;9.23;;;23.90;99.90;;;;;;5118549;28;20489;-81
2023/08/21 01:51:08;;;;;;;9.93;9.13;;;23.90;99.90;;;;;;5117700;28;20472;-80
2023/08/21 01:53:35;;;;;;;11.50;10.37;;;23.90;99.90;;;;;;5118626;28;20519;-81
2023/08/21 01:56:02;;;;;;;10.80;9.80;;;23.90;99.90;;;;;;5117345;28;20513;-82
2023/08/21 01:58:33;;;;;;;10.00;9.20;;;23.90;99.90;;;;;;5118404;28;20520;-80
2023/08/21 02:01:01;;;;;;;10.60;9.67;;;23.90;99.90;;;;;;5117470;28;20647;-81
2023/08/21 02:03:30;;;;;;;10.30;9.40;;;23.90;99.90;;;;;;5117689;28;20518;-78
2023/08/21 02:05:58;;;;;;;10.93;9.50;;;23.90;99.90;;;;;;5117891;28;20809;-80
2023/08/21 02:08:32;;;;;;;10.20;9.40;;;23.90;99.90;;;;;;5117469;28;20532;-81
2023/08/21 02:10:59;;;;;;;11.80;10.50;;;23.90;99.90;;;;;;5117252;28;20987;-81
2023/08/21 02:13:26;;;;;;;10.17;9.20;;;23.90;99.90;;;;;;5116375;28;20460;-79
2023/08/21 02:15:55;;;;;;;10.80;9.80;;;23.90;99.90;;;;;;5116430;28;20515;-81
2023/08/21 02:18:22;;;;;;;10.90;9.90;;;23.90;99.90;;;;;;5117307;28;20468;-83
2023/08/21 02:20:50;;;;;;;9.50;8.60;;;23.90;99.90;;;;;;5118647;28;20521;-82
2023/08/21 02:23:17;;;;;;;10.50;9.03;;;23.80;99.90;;;;;;5117909;28;20468;-82
2023/08/21 02:25:44;;;;;;;11.13;10.13;;;23.80;99.90;;;;;;5118691;28;20474;-81
2023/08/21 02:28:12;;;;;;;10.10;9.20;;;23.80;99.90;;;;;;5115873;28;20494;-80
2023/08/21 02:30:41;;;;;;;12.90;8.90;;;23.80;99.90;;;;;;5116122;28;20471;-80
2023/08/21 02:33:10;;;;;;;9.17;8.40;;;23.80;99.90;;;;;;5116077;28;20525;-81
2023/08/21 02:35:37;;;;;;;10.47;9.60;;;23.80;99.90;;;;;;5116397;28;20464;-83
2023/08/21 02:38:04;;;;;;;9.63;8.73;;;23.80;99.90;;;;;;5115803;28;20533;-79
2023/08/21 02:40:31;;;;;;;8.60;7.90;;;23.80;99.90;;;;;;5116143;28;20829;-79
2023/08/21 02:42:58;;;;;;;9.20;8.43;;;23.80;99.90;;;;;;5116685;28;20477;-79
2023/08/21 02:45:25;;;;;;;9.53;8.70;;;23.80;99.90;;;;;;5115435;28;20537;-82
2023/08/21 02:47:52;;;;;;;10.87;9.83;;;23.90;99.90;;;;;;5116067;28;20492;-82
2023/08/21 02:50:20;;;;;;;9.23;8.17;;;23.80;99.90;;;;;;5116990;28;20468;-82
2023/08/21 02:52:47;;;;;;;8.97;8.20;;;23.80;99.90;;;;;;5115957;28;20492;-80
2023/08/21 02:55:15;;;;;;;7.40;6.87;;;23.80;99.90;;;;;;5115370;28;20476;-81
2023/08/21 02:57:43;;;;;;;8.43;7.63;;;23.80;99.90;;;;;;5116603;28;21038;-82
2023/08/21 03:00:11;;;;;;;7.93;7.23;;;23.80;99.90;;;;;;5115800;28;20468;-80
2023/08/21 03:02:42;;;;;;;7.97;7.37;;;23.80;99.90;;;;;;5115415;28;21010;-79
2023/08/21 03:05:10;;;;;;;7.40;6.80;;;23.80;99.90;;;;;;5115780;28;20511;-80
2023/08/21 03:07:39;;;;;;;8.67;8.00;;;23.80;99.90;;;;;;5105252;28;20540;-80
2023/08/21 03:10:07;;;;;;;8.30;7.60;;;23.90;99.90;;;;;;5115712;28;20545;-81
2023/08/21 03:12:34;;;;;;;9.30;8.27;;;23.90;99.90;;;;;;5114400;28;20464;-81
2023/08/21 03:15:01;;;;;;;9.17;8.37;;;23.90;99.90;;;;;;5114356;28;20473;-81
2023/08/21 03:17:28;;;;;;;9.27;8.57;;;23.90;99.90;;;;;;5114867;28;20468;-80
2023/08/21 03:19:55;;;;;;;10.60;9.67;;;23.80;99.90;;;;;;5102050;28;20500;-80
2023/08/21 03:22:22;;;;;;;8.90;8.10;;;23.80;99.90;;;;;;5114751;28;20540;-80
2023/08/21 03:24:51;;;;;;;8.37;7.63;;;23.80;99.90;;;;;;5115033;28;20468;-80
2023/08/21 03:27:18;;;;;;;9.03;8.13;;;23.80;99.90;;;;;;5114691;28;20453;-80
2023/08/21 03:29:48;;;;;;;9.67;8.70;;;23.80;99.90;;;;;;5115178;28;20522;-80
2023/08/21 03:32:15;;;;;;;8.00;7.40;;;23.80;99.90;;;;;;5114149;28;20846;-80
2023/08/21 03:34:43;;;;;;;8.30;7.60;;;23.80;99.90;;;;;;5114994;28;20469;-80
2023/08/21 03:37:10;;;;;;;9.03;8.13;;;23.80;99.90;;;;;;5114542;28;20522;-80
2023/08/21 03:39:38;;;;;;;8.73;8.03;;;23.80;99.90;;;;;;5114656;28;20814;-80
2023/08/21 03:42:07;;;;;;;7.40;6.83;;;23.90;99.90;;;;;;5103192;28;20476;-81
2023/08/21 03:44:34;;;;;;;8.10;7.40;;;23.90;99.90;;;;;;5104515;28;20483;-80
2023/08/21 03:47:01;;;;;;;11.23;8.23;;;23.90;99.90;;;;;;5114004;28;20622;-80
2023/08/21 03:49:28;;;;;;;8.97;8.27;;;23.90;99.90;;;;;;5113853;28;20461;-80
2023/08/21 03:51:55;;;;;;;9.37;8.47;;;23.90;99.90;;;;;;5114600;28;20460;-80
2023/08/21 03:54:22;;;;;;;8.00;7.30;;;23.90;99.90;;;;;;5112596;28;20507;-79
2023/08/21 03:56:49;;;;;;;8.80;8.10;;;23.90;99.90;;;;;;5114920;28;20475;-82
2023/08/21 03:59:18;;;;;;;8.83;8.13;;;23.90;99.90;;;;;;5113885;28;20468;-81
2023/08/21 04:01:45;;;;;;;9.13;8.33;;;23.90;99.90;;;;;;5114654;28;20953;-80
2023/08/21 04:04:12;;;;;;;7.90;7.13;;;23.80;99.90;;;;;;5113795;28;20949;-80
2023/08/21 04:06:38;;;;;;;8.53;7.77;;;23.80;99.90;;;;;;5114177;28;20953;-82
2023/08/21 04:09:06;;;;;;;8.00;7.30;;;23.80;99.90;;;;;;5114130;28;20472;-81
2023/08/21 04:11:34;;;;;;;8.47;7.67;;;23.90;99.90;;;;;;5113998;28;20464;-81
2023/08/21 04:14:01;;;;;;;8.53;7.73;;;23.90;99.90;;;;;;5113770;28;20460;-80
2023/08/21 04:16:30;;;;;;;11.17;7.87;;;23.90;99.90;;;;;;5113947;28;20468;-79
2023/08/21 04:18:57;;;;;;;8.10;7.40;;;23.90;99.90;;;;;;5114822;28;20462;-80
2023/08/21 04:21:24;;;;;;;8.30;7.50;;;23.90;99.90;;;;;;5112867;28;20866;-81
2023/08/21 04:23:52;;;;;;;8.53;7.77;;;23.90;99.90;;;;;;5114107;28;20771;-80
2023/08/21 04:26:19;;;;;;;7.50;6.90;;;23.90;99.90;;;;;;5113671;28;20460;-81
2023/08/21 04:28:47;;;;;;;8.07;7.30;;;23.90;99.90;;;;;;5114151;28;20464;-80
2023/08/21 04:31:14;;;;;;;6.50;5.97;;;23.90;99.90;;;;;;5114208;28;20468;-80
2023/08/21 04:33:42;;;;;;;8.00;7.40;;;23.90;99.90;;;;;;5113972;28;20453;-79
2023/08/21 04:36:15;;;;;;;8.17;7.47;;;23.90;99.90;;;;;;5113826;28;20479;-80
2023/08/21 04:38:42;;;;;;;7.67;7.07;;;23.90;99.90;;;;;;5113895;28;20481;-79
2023/08/21 04:41:10;;;;;;;9.00;8.17;;;23.90;99.90;;;;;;5114581;28;20472;-80
2023/08/21 04:43:37;;;;;;;8.33;7.63;;;23.90;99.90;;;;;;5113441;28;20834;-80
2023/08/21 04:46:06;;;;;;;7.47;6.87;;;24.00;99.90;;;;;;5114094;28;20468;-81
2023/08/21 04:48:33;;;;;;;8.17;7.57;;;24.00;99.90;;;;;;5113462;28;20472;-81
2023/08/21 04:51:02;;;;;;;7.10;6.50;;;24.00;99.90;;;;;;5113971;28;20468;-79
2023/08/21 04:53:29;;;;;;;8.40;7.67;;;24.00;99.90;;;;;;5113021;28;20872;-82
2023/08/21 04:55:59;;;;;;;8.10;7.50;;;24.00;99.90;;;;;;5113561;28;20541;-82
2023/08/21 04:58:26;;;;;;;8.07;7.43;;;24.00;99.90;;;;;;5113239;28;20858;-81
2023/08/21 05:00:56;;;;;;;9.17;8.40;;;24.00;99.90;;;;;;5114538;28;20798;-81
2023/08/21 05:03:23;;;;;;;9.80;9.00;;;24.10;99.90;;;;;;5088986;28;20513;-80
2023/08/21 05:05:54;;;;;;;8.10;7.50;;;24.10;99.90;;;;;;5113789;28;20476;-80
2023/08/21 05:08:23;;;;;;;10.10;9.20;;;24.10;99.90;;;;;;5112873;28;20471;-81
2023/08/21 05:10:55;;;;;;;9.73;8.90;;;24.10;99.90;;;;;;5113620;28;20469;-81
2023/08/21 05:13:22;;;;;;;9.30;8.50;;;24.10;99.90;;;;;;5112948;28;20460;-80
2023/08/21 05:15:53;;;;;;;9.70;8.90;;;24.20;99.90;;;;;;5116680;28;20473;-82
2023/08/21 05:18:25;;;;;;;9.00;8.20;;;24.20;99.90;;;;;;5117562;28;20514;-79
2023/08/21 05:20:55;;;;;;;8.60;7.90;;;24.20;99.90;;;;;;5117841;28;20464;-81
2023/08/21 05:23:25;;;;;;;9.63;8.73;;;24.20;99.90;;;;;;5116635;28;20557;-81
2023/08/21 05:25:53;;;;;;;10.40;9.30;;;24.20;99.90;;;;;;5117510;28;20470;-81
2023/08/21 05:28:22;;;;;;;10.70;9.70;;;24.20;99.90;;;;;;5116817;28;20464;-82
2023/08/21 05:30:50;;;;;;;10.77;9.80;;;24.20;99.90;;;;;;5117364;28;20484;-81
2023/08/21 05:33:17;;;;;;;10.00;9.30;;;24.20;99.90;;;;;;5116684;28;20541;-80
2023/08/21 05:35:44;;;;;;;9.53;8.83;;;24.20;99.90;;;;;;5117165;28;20469;-81
2023/08/21 05:38:11;;;;;;;10.33;9.43;;;24.30;99.90;;;;;;5116969;28;20465;-81
2023/08/21 05:40:41;;;;;;;10.70;9.80;;;24.30;99.90;;;;;;5117137;28;20529;-82
2023/08/21 05:43:08;;;;;;;10.67;9.77;;;24.30;99.90;;;;;;5116548;28;20468;-80
2023/08/21 05:45:35;;;;;;;9.70;9.00;;;24.30;99.90;;;;;;5117449;28;21017;-81
2023/08/21 05:48:01;;;;;;;11.27;10.17;;;24.40;99.90;;;;;;5117449;28;20469;-81
2023/08/21 05:50:29;;;;;;;10.43;9.40;;;24.40;99.90;;;;;;5116873;28;20483;-82
2023/08/21 05:53:01;;;;;;;9.90;9.10;;;24.50;99.90;;;;;;5117118;28;20949;-82
2023/08/21 05:55:28;;;;;;;10.13;9.30;;;24.50;99.90;;;;;;5116323;28;21029;-82
2023/08/21 05:57:59;;;;;;;9.60;8.43;;;24.60;99.90;;;;;;5117223;28;20464;-81
2023/08/21 06:00:26;;;;;;;10.90;9.90;;;24.60;99.90;;;;;;5116626;28;20476;-82
2023/08/21 06:02:59;;;;;;;10.50;9.43;;;24.60;99.90;;;;;;5117067;28;20471;-80
2023/08/21 06:05:26;;;;;;;9.60;8.90;;;24.60;99.90;;;;;;5116724;28;20477;-80
2023/08/21 06:07:53;;;;;;;11.30;10.30;;;24.70;99.90;;;;;;5097118;28;20567;-80
2023/08/21 06:10:20;;;;;;;9.87;9.00;;;24.70;99.90;;;;;;5115952;28;20477;-81
2023/08/21 06:12:47;;;;;;;10.70;9.70;;;24.80;99.90;;;;;;5116853;28;20464;-81
2023/08/21 06:15:18;;;;;;;11.63;10.53;;;24.80;99.90;;;;;;5115672;28;20479;-82
2023/08/21 06:17:45;;;;;;;10.70;9.80;;;24.80;99.90;;;;;;5116040;28;20848;-80
2023/08/21 06:20:13;;;;;;;10.00;9.20;;;24.80;99.90;;;;;;5116731;28;20496;-82
2023/08/21 06:22:40;;;;;;;9.30;8.43;;;24.80;99.90;;;;;;5116074;28;20441;-80
2023/08/21 06:25:14;;;;;;;9.80;9.10;;;24.90;99.90;;;;;;5116461;28;20538;-80
2023/08/21 06:27:41;;;;;;;11.27;10.17;;;25.00;99.90;;;;;;5115353;28;20555;-81
2023/08/21 06:30:09;;;;;;;10.93;9.90;;;25.00;99.90;;;;;;5116370;28;20491;-80
2023/08/21 06:32:40;;;;;;;11.50;9.73;;;25.00;99.90;;;;;;5106942;28;25345;-81
2023/08/21 06:35:07;;;;;;;9.17;8.37;;;25.00;99.90;;;;;;5116414;28;20809;-80
2023/08/21 06:37:34;;;;;;;9.47;8.67;;;25.00;99.90;;;;;;5115706;28;20464;-80
2023/08/21 06:40:02;;;;;;;9.80;9.00;;;25.10;99.90;;;;;;5116249;28;20484;-82
2023/08/21 06:42:28;;;;;;;11.20;10.30;;;25.10;99.90;;;;;;5114833;28;20496;-79
2023/08/21 06:44:55;;;;;;;11.70;10.80;;;25.20;99.90;;;;;;5116064;28;20464;-82
2023/08/21 06:47:23;;;;;;;12.57;11.47;;;25.20;99.90;;;;;;5115515;28;20473;-81
2023/08/21 06:49:54;;;;;;;17.37;9.57;;;25.20;99.90;;;;;;5116111;28;20835;-80
2023/08/21 06:52:21;;;;;;;10.33;9.53;;;25.30;99.90;;;;;;5115410;28;20487;-81
2023/08/21 06:54:49;;;;;;;11.90;10.90;;;25.40;99.90;;;;;;5118982;28;20465;-82
2023/08/21 06:57:16;;;;;;;10.40;9.60;;;25.50;99.90;;;;;;5115898;28;20546;-80
2023/08/21 06:59:42;;;;;;;10.83;9.93;;;25.60;99.90;;;;;;5115059;28;20523;-82
2023/08/21 07:02:10;;;;;;;10.07;9.10;;;25.60;99.90;;;;;;5116011;28;20492;-80
2023/08/21 07:04:37;;;;;;;9.20;8.50;;;25.80;99.90;;;;;;5115236;28;20465;-80
2023/08/21 07:07:05;;;;;;;10.50;9.60;;;25.80;99.90;;;;;;5115393;28;20809;-80
2023/08/21 07:09:32;;;;;;;10.07;9.17;;;25.90;99.90;;;;;;5115074;28;20856;-81
2023/08/21 07:11:59;;;;;;;10.13;9.23;;;26.00;99.90;;;;;;5115402;28;20471;-80
2023/08/21 07:14:28;;;;;;;9.60;8.80;;;26.00;99.90;;;;;;5114799;28;20478;-81
2023/08/21 07:16:55;;;;;;;10.90;9.90;;;26.10;99.90;;;;;;5115384;28;20465;-82
2023/08/21 07:19:22;;;;;;;10.10;9.30;;;26.10;99.90;;;;;;5114554;28;20473;-82
2023/08/21 07:21:55;;;;;;;11.53;9.50;;;26.20;99.90;;;;;;5114613;28;20465;-80
2023/08/21 07:24:23;;;;;;;8.33;7.80;;;26.30;99.90;;;;;;5115074;28;20551;-81
2023/08/21 07:26:50;;;;;;;8.10;7.33;;;26.40;99.90;;;;;;5114841;28;20457;-82
2023/08/21 07:29:17;;;;;;;9.20;8.30;;;26.40;99.90;;;;;;5115240;28;20482;-82
2023/08/21 07:31:44;;;;;;;8.23;7.00;;;26.50;99.90;;;;;;5114667;28;20465;-81
2023/08/21 07:34:11;;;;;;;7.50;6.47;;;26.50;99.90;;;;;;5112603;28;20533;-82
2023/08/21 07:36:38;;;;;;;8.00;7.30;;;26.50;99.90;;;;;;5114609;28;21030;-81
2023/08/21 07:39:05;;;;;;;7.97;7.37;;;26.50;99.90;;;;;;5114875;28;20845;-80
2023/08/21 07:41:33;;;;;;;7.20;6.50;;;26.50;99.90;;;;;;5114137;28;20481;-81
2023/08/21 07:44:00;;;;;;;9.73;8.27;;;26.50;99.90;;;;;;5104708;28;20471;-83
2023/08/21 07:46:27;;;;;;;7.20;6.70;;;26.60;99.90;;;;;;5114473;28;20517;-81
2023/08/21 07:48:55;;;;;;;8.00;6.80;;;26.60;99.90;;;;;;5114670;28;20458;-81
2023/08/21 07:51:22;;;;;;;5.63;5.13;;;26.60;99.90;;;;;;5114874;28;20470;-81
2023/08/21 07:53:52;;;;;;;7.00;6.00;;;26.60;99.90;;;;;;5114348;28;20467;-81
2023/08/21 07:56:23;;;;;;;7.90;7.30;;;26.60;99.90;;;;;;5114921;28;20485;-81
2023/08/21 07:58:51;;;;;;;7.33;6.73;;;26.60;99.90;;;;;;5113999;28;20534;-80
2023/08/21 08:01:21;;;;;;;6.20;5.60;;;26.70;99.90;;;;;;5114938;28;20477;-82
2023/08/21 08:03:49;;;;;;;7.70;6.87;;;26.70;99.90;;;;;;5114240;28;20537;-82
2023/08/21 08:06:16;;;;;;;5.40;5.00;;;26.80;99.90;;;;;;5114624;28;20466;-82
2023/08/21 08:08:43;;;;;;;5.97;5.00;;;26.70;99.90;;;;;;5113728;28;20473;-82
2023/08/21 08:11:10;;;;;;;6.20;5.70;;;26.80;99.90;;;;;;5114268;28;20489;-81
2023/08/21 08:13:37;;;;;;;5.93;5.10;;;26.80;99.90;;;;;;5113771;28;20471;-81
2023/08/21 08:16:06;;;;;;;7.27;6.67;;;26.90;99.90;;;;;;5114264;28;20523;-81
2023/08/21 08:18:32;;;;;;;5.83;5.40;;;26.80;99.90;;;;;;5114396;28;20543;-81
2023/08/21 08:20:59;;;;;;;5.60;5.10;;;26.90;99.90;;;;;;5113533;28;20446;-82
2023/08/21 08:23:26;;;;;;;6.90;6.20;;;26.80;99.90;;;;;;5114571;28;20504;-83
2023/08/21 08:25:54;;;;;;;7.10;5.87;;;26.80;99.90;;;;;;5113476;28;20472;-81
2023/08/21 08:28:23;;;;;;;9.67;6.10;;;26.90;99.90;;;;;;5114422;28;20499;-81
2023/08/21 08:30:51;;;;;;;5.20;4.80;;;26.90;99.90;;;;;;5113298;28;20463;-81
2023/08/21 08:33:20;;;;;;;6.33;4.87;;;26.90;99.90;;;;;;5114084;28;20464;-82
2023/08/21 08:35:47;;;;;;;3.93;3.47;;;26.90;99.90;;;;;;5112553;28;20471;-82
2023/08/21 08:38:14;;;;;;;2.50;2.23;;;26.90;99.90;;;;;;5114123;28;20531;-80
2023/08/21 08:40:46;;;;;;;2.50;2.30;;;26.90;99.90;;;;;;5113870;28;20807;-82
2023/08/21 08:43:14;;;;;;;4.37;2.20;;;27.00;99.90;;;;;;5113698;28;20467;-81
2023/08/21 08:45:42;;;;;;;4.07;3.10;;;27.00;99.90;;;;;;5113305;28;20832;-82
2023/08/21 08:48:11;;;;;;;4.33;3.93;;;27.00;99.90;;;;;;5113753;28;21030;-81
2023/08/21 08:50:40;;;;;;;5.10;4.70;;;27.00;99.90;;;;;;5113262;28;20478;-81
2023/08/21 08:53:09;;;;;;;5.80;5.30;;;27.00;99.90;;;;;;5113054;28;20457;-82
2023/08/21 08:55:36;;;;;;;5.40;4.93;;;27.10;99.90;;;;;;5113651;28;20495;-81
2023/08/21 08:58:03;;;;;;;3.43;3.13;;;27.10;99.90;;;;;;5113166;28;20829;-82
2023/08/21 09:00:36;;;;;;;3.13;2.93;;;27.20;99.90;;;;;;5112639;28;20476;-82
2023/08/21 09:03:03;;;;;;;4.53;3.73;;;27.20;99.90;;;;;;5112195;28;20551;-80
2023/08/21 09:05:30;;;;;;;3.50;3.23;;;27.30;99.90;;;;;;5113736;28;20514;-80
2023/08/21 09:08:11;;;;;;;3.33;3.10;;;27.30;99.90;;;;;;5112414;28;20819;-81
2023/08/21 09:10:38;;;;;;;3.03;2.70;;;27.40;99.90;;;;;;5113482;28;20467;-81
2023/08/21 09:13:13;;;;;;;3.17;2.83;;;27.40;99.90;;;;;;5113392;28;20761;-80
2023/08/21 09:15:42;;;;;;;3.00;2.50;;;27.50;99.90;;;;;;5114032;28;20493;-80
2023/08/21 09:18:11;;;;;;;2.83;2.47;;;27.60;99.90;;;;;;5113098;28;20524;-81
2023/08/21 09:20:39;;;;;;;3.13;2.20;;;27.60;99.90;;;;;;5114459;28;20568;-81
2023/08/21 09:23:08;;;;;;;3.80;3.03;;;27.60;99.90;;;;;;5112967;28;20471;-81
2023/08/21 09:25:36;;;;;;;2.63;2.40;;;27.70;99.90;;;;;;5114189;28;20992;-81
2023/08/21 09:28:07;;;;;;;2.97;2.70;;;27.80;99.90;;;;;;5114017;28;20525;-80
2023/08/21 09:30:46;;;;;;;4.13;3.50;;;27.80;99.90;;;;;;5113058;28;20464;-82
2023/08/21 09:33:14;;;;;;;3.53;3.23;;;27.80;99.90;;;;;;5114095;28;20577;-82
2023/08/21 09:35:43;;;;;;;4.17;3.87;;;27.80;99.90;;;;;;5116049;28;20852;-80
2023/08/21 09:38:11;;;;;;;4.73;4.33;;;27.80;99.90;;;;;;5109123;28;20825;-82
2023/08/21 09:40:50;;;;;;;5.33;4.93;;;27.90;99.90;;;;;;5113844;28;20540;-82
2023/08/21 09:43:17;;;;;;;5.13;4.73;;;27.80;99.90;;;;;;5114991;28;20830;-80
2023/08/21 09:45:48;;;;;;;5.20;4.80;;;27.80;99.90;;;;;;5116906;28;20961;-81
2023/08/21 09:48:15;;;;;;;5.23;4.83;;;27.80;99.90;;;;;;5113782;28;20465;-82
2023/08/21 09:50:43;;;;;;;6.77;4.77;;;27.70;99.90;;;;;;5114272;28;20524;-80
2023/08/21 09:53:12;;;;;;;5.80;5.30;;;27.70;99.90;;;;;;5113778;28;20489;-81
2023/08/21 09:55:41;;;;;;;4.97;4.57;;;27.70;99.90;;;;;;5114733;28;20529;-80
2023/08/21 09:58:08;;;;;;;4.60;4.23;;;27.70;99.90;;;;;;5113419;28;20508;-81
2023/08/21 10:00:37;;;;;;;4.60;4.20;;;27.70;99.90;;;;;;5099529;28;20500;-82
2023/08/21 10:03:05;;;;;;;4.27;3.97;;;27.60;99.90;;;;;;5115643;28;20963;-82
2023/08/21 10:05:35;;;;;;;4.70;4.40;;;27.60;99.90;;;;;;5116810;28;21005;-82
2023/08/21 10:08:04;;;;;;;4.07;3.77;;;27.60;99.90;;;;;;5116371;28;20448;-81
2023/08/21 10:10:33;;;;;;;3.60;3.40;;;27.60;99.90;;;;;;5107803;28;20525;-82
2023/08/21 10:13:01;;;;;;;3.90;3.60;;;27.60;99.90;;;;;;5116413;28;20479;-82
2023/08/21 10:15:30;;;;;;;4.83;3.80;;;27.60;99.90;;;;;;5116662;28;20495;-81
2023/08/21 10:17:59;;;;;;;3.57;3.10;;;27.60;99.90;;;;;;5116130;28;20475;-82
2023/08/21 10:20:27;;;;;;;4.03;2.93;;;27.60;99.90;;;;;;5107852;28;20464;-81
2023/08/21 10:22:55;;;;;;;4.00;3.67;;;27.70;99.90;;;;;;5116000;28;20474;-81
2023/08/21 10:25:25;;;;;;;3.57;3.27;;;27.70;99.90;;;;;;5116077;28;20551;-82
2023/08/21 10:27:56;;;;;;;4.00;3.67;;;27.70;99.90;;;;;;5116120;28;21008;-81
2023/08/21 10:30:24;;;;;;;3.70;3.33;;;27.70;99.90;;;;;;5115631;28;20471;-80
2023/08/21 10:32:52;;;;;;;3.47;3.10;;;27.70;99.90;;;;;;5116049;28;20566;-80
2023/08/21 10:35:24;;;;;;;6.03;3.70;;;27.80;99.90;;;;;;5116541;28;20954;-80
2023/08/21 10:38:11;;;;;;;3.97;3.60;;;27.80;99.90;;;;;;5114617;28;20474;-82
2023/08/21 10:40:39;;;;;;;3.00;2.80;;;27.70;99.90;;;;;;5116021;28;20471;-81
2023/08/21 10:43:38;;;;;;;3.37;3.07;;;27.70;99.90;;;;;;5115421;28;20469;-81
2023/08/21 10:46:05;;;;;;;3.20;3.00;;;27.70;99.90;;;;;;5115816;28;20480;-81
2023/08/21 10:48:32;;;;;;;3.60;3.30;;;27.70;99.90;;;;;;5116243;28;20465;-82
2023/08/21 10:51:04;;;;;;;3.47;3.23;;;27.60;99.90;;;;;;5102956;28;20533;-81
2023/08/21 10:53:32;;;;;;;3.13;2.87;;;27.50;99.90;;;;;;5115004;28;20459;-81
2023/08/21 10:56:03;;;;;;;3.57;3.23;;;27.50;99.90;;;;;;5103829;28;20802;-81
2023/08/21 10:58:36;;;;;;;3.40;2.90;;;27.50;99.90;;;;;;5115182;28;20471;-81
2023/08/21 11:01:03;;;;;;;3.37;3.07;;;27.50;99.90;;;;;;5115736;28;20533;-82
2023/08/21 11:03:30;;;;;;;3.63;3.33;;;27.60;99.90;;;;;;5115173;28;20537;-80
2023/08/21 11:06:04;;;;;;;3.23;3.00;;;27.60;99.90;;;;;;5115666;28;20499;-81
2023/08/21 11:08:35;;;;;;;3.30;3.00;;;27.60;99.90;;;;;;5114984;28;20470;-80
2023/08/21 11:11:04;;;;;;;2.77;2.53;;;27.60;99.90;;;;;;5115895;28;21038;-81
2023/08/21 11:13:33;;;;;;;4.40;3.20;;;27.60;99.90;;;;;;5114646;28;20496;-81
2023/08/21 11:16:00;;;;;;;2.90;2.70;;;27.70;99.90;;;;;;5115424;28;20488;-80
2023/08/21 11:18:35;;;;;;;2.57;2.37;;;27.70;99.90;;;;;;5115105;28;20467;-81
2023/08/21 11:21:09;;;;;;;2.93;2.50;;;27.60;99.90;;;;;;5105142;28;20989;-81
2023/08/21 11:23:37;;;;;;;2.90;2.60;;;27.60;99.90;;;;;;5112887;28;20478;-82
2023/08/21 11:26:05;;;;;;;2.83;2.63;;;27.60;99.90;;;;;;5114338;28;20813;-82
2023/08/21 11:28:34;;;;;;;2.53;2.20;;;27.60;99.90;;;;;;5114983;28;20479;-81
2023/08/21 11:31:01;;;;;;;3.10;2.90;;;27.60;99.90;;;;;;5115077;28;20936;-80
2023/08/21 11:33:29;;;;;;;2.60;2.40;;;27.50;99.90;;;;;;5114586;28;20469;-83
2023/08/21 11:35:58;;;;;;;2.20;2.10;;;27.60;99.90;;;;;;5114977;28;20506;-81
2023/08/21 11:38:28;;;;;;;4.03;2.50;;;27.60;99.90;;;;;;5114344;28;20524;-80
2023/08/21 11:40:56;;;;;;;2.30;2.10;;;27.60;99.90;;;;;;5114747;28;20478;-81
2023/08/21 11:43:24;;;;;;;4.73;2.67;;;27.60;99.90;;;;;;5114499;28;20471;-81
2023/08/21 11:45:52;;;;;;;4.47;2.40;;;27.60;99.90;;;;;;5114810;28;20468;-82
2023/08/21 11:48:21;;;;;;;2.40;2.20;;;27.70;99.90;;;;;;5114859;28;20976;-81
2023/08/21 11:50:50;;;;;;;2.67;2.47;;;27.60;99.90;;;;;;5114796;28;20455;-81
2023/08/21 11:53:33;;;;;;;2.37;2.17;;;27.70;99.90;;;;;;5114731;28;20559;-81
2023/08/21 11:56:00;;;;;;;2.80;2.60;;;27.60;99.90;;;;;;5115334;28;20464;-82
2023/08/21 11:58:28;;;;;;;2.67;2.47;;;27.70;99.90;;;;;;5113955;28;20526;-81
2023/08/21 12:01:04;;;;;;;2.90;2.33;;;27.60;99.90;;;;;;5114716;28;20851;-82
2023/08/21 12:03:32;;;;;;;2.90;2.67;;;27.60;99.90;;;;;;5105574;28;20464;-81
2023/08/21 12:05:59;;;;;;;2.67;2.30;;;27.60;99.90;;;;;;5114622;28;20549;-82
2023/08/21 12:08:26;;;;;;;2.93;2.73;;;27.60;99.90;;;;;;5114442;28;20467;-82
2023/08/21 12:10:53;;;;;;;3.90;2.53;;;27.60;99.90;;;;;;5114601;28;20460;-80
2023/08/21 12:13:20;;;;;;;3.10;2.80;;;27.60;99.90;;;;;;5113664;28;20464;-81
2023/08/21 12:15:47;;;;;;;2.53;2.13;;;27.60;99.90;;;;;;5113992;28;20527;-82
2023/08/21 12:18:15;;;;;;;2.30;2.10;;;27.60;99.90;;;;;;5113798;28;20492;-81
2023/08/21 12:20:42;;;;;;;4.00;2.50;;;27.60;99.90;;;;;;5114250;28;20514;-82
2023/08/21 12:23:09;;;;;;;2.30;2.10;;;27.60;99.90;;;;;;5114317;28;20491;-82
2023/08/21 12:25:36;;;;;;;2.50;2.30;;;27.60;99.90;;;;;;5112429;28;20906;-83
2023/08/21 12:28:04;;;;;;;4.13;3.63;;;27.60;99.90;;;;;;5113994;28;20464;-82
2023/08/21 12:30:31;;;;;;;4.03;2.37;;;27.50;99.90;;;;;;5114000;28;20476;-81
2023/08/21 12:32:58;;;;;;;3.13;2.83;;;27.50;99.90;;;;;;5113960;28;20467;-82
2023/08/21 12:35:30;;;;;;;2.73;2.50;;;27.50;99.90;;;;;;5113792;28;20476;-81
2023/08/21 12:38:05;;;;;;;4.00;2.80;;;27.50;99.90;;;;;;5112942;28;20482;-80
2023/08/21 12:40:32;;;;;;;3.80;3.10;;;27.60;99.90;;;;;;5113780;28;20953;-81
2023/08/21 12:43:00;;;;;;;2.53;2.33;;;27.50;99.90;;;;;;5114154;28;20983;-81
2023/08/21 12:45:27;;;;;;;2.60;2.40;;;27.60;99.90;;;;;;5113723;28;20469;-81
2023/08/21 12:47:54;;;;;;;3.03;2.73;;;27.60;99.90;;;;;;5114083;28;20467;-81
2023/08/21 12:50:21;;;;;;;3.23;2.80;;;27.60;99.90;;;;;;5113300;28;21027;-81